Time;durP1;ratioP1;P1;durP2;ratioP2;P2;SDS_P1;SDS_P2;PMS_P1;PMS_P2;Temp;Humidity;BMP_temperature;BMP_pressure;BME280_temperature;BME280_humidity;BME280_pressure;Samples;Min_cycle;Max_cycle;Signal;HPM_P1;HPM_P2
2023/01/25 00:01:43;;;;;;;1.63;1.38;;;;;;;-0.65;100.00;102060.53;10403024;28;20054;-85
2023/01/25 00:06:46;;;;;;;0.82;0.63;;;;;;;-0.68;100.00;102055.50;10404065;28;20053;-85
2023/01/25 00:11:49;;;;;;;1.25;1.05;;;;;;;-0.68;100.00;102050.94;10403046;28;20420;-85
2023/01/25 00:16:51;;;;;;;1.20;1.10;;;;;;;-0.66;100.00;102042.69;10403830;28;20558;-86
2023/01/25 00:21:53;;;;;;;1.20;0.98;;;;;;;-0.67;100.00;102030.22;10404176;28;20053;-84
2023/01/25 00:26:55;;;;;;;1.02;1.00;;;;;;;-0.70;100.00;102023.28;10403718;28;20416;-86
2023/01/25 00:32:00;;;;;;;1.48;0.77;;;;;;;-0.70;100.00;102003.59;10403692;28;20053;-86
2023/01/25 00:37:17;;;;;;;1.52;1.20;;;;;;;-0.70;100.00;102000.88;10405722;28;20046;-85
2023/01/25 00:42:19;;;;;;;1.35;0.75;;;;;;;-0.75;100.00;101996.03;10411984;28;20056;-85
2023/01/25 00:47:21;;;;;;;1.08;0.80;;;;;;;-0.74;100.00;102002.25;10411488;28;20428;-84
2023/01/25 00:52:23;;;;;;;2.67;0.60;;;;;;;-0.75;100.00;102014.06;10411160;28;20038;-85
2023/01/25 00:57:26;;;;;;;0.93;0.77;;;;;;;-0.74;100.00;102007.66;10411395;28;20049;-85
2023/01/25 01:02:29;;;;;;;1.15;0.95;;;;;;;-0.80;100.00;101997.56;10409586;28;20077;-86
2023/01/25 01:07:31;;;;;;;2.08;1.33;;;;;;;-0.81;100.00;101991.34;10409258;28;20042;-84
2023/01/25 01:12:33;;;;;;;0.88;0.70;;;;;;;-0.81;100.00;101977.88;10408902;28;20049;-84
2023/01/25 01:17:36;;;;;;;1.67;0.80;;;;;;;-0.83;100.00;101962.91;10410857;28;20054;-85
2023/01/25 01:22:38;;;;;;;0.88;0.77;;;;;;;-0.86;100.00;101972.16;10392821;28;20046;-86
2023/01/25 01:27:41;;;;;;;0.52;0.52;;;;;;;-0.88;100.00;101982.25;10392104;28;20049;-86
2023/01/25 01:32:43;;;;;;;1.33;1.17;;;;;;;-0.83;100.00;101968.28;10409766;28;20045;-85
2023/01/25 01:37:45;;;;;;;3.40;1.77;;;;;;;-0.85;100.00;101946.06;10408424;28;20052;-85
2023/01/25 01:42:59;;;;;;;3.25;1.90;;;;;;;-0.87;100.00;101942.69;10408879;28;20050;-86
2023/01/25 01:48:03;;;;;;;1.17;0.98;;;;;;;-0.85;100.00;101929.91;10406570;28;20048;-84
2023/01/25 01:53:06;;;;;;;1.25;1.05;;;;;;;-0.89;100.00;101912.38;10409060;28;20050;-84
2023/01/25 01:58:08;;;;;;;2.42;1.48;;;;;;;-0.86;100.00;101885.94;10407119;28;20638;-85
2023/01/25 02:03:11;;;;;;;2.95;1.80;;;;;;;-0.86;100.00;101874.31;10407125;28;20050;-86
2023/01/25 02:08:14;;;;;;;3.10;1.50;;;;;;;-0.88;100.00;101857.47;10390629;28;20046;-86
2023/01/25 02:13:18;;;;;;;2.33;1.52;;;;;;;-0.88;100.00;101842.16;10406836;28;20058;-86
2023/01/25 02:18:21;;;;;;;2.42;1.73;;;;;;;-0.88;100.00;101836.75;10390396;28;20139;-85
2023/01/25 02:24:10;;;;;;;3.70;1.77;;;;;;;-0.88;100.00;101830.53;10407208;28;20054;-85
2023/01/25 02:29:19;;;;;;;2.40;1.70;;;;;;;-0.86;100.00;101850.06;10407293;28;20049;-84
2023/01/25 02:34:24;;;;;;;0.67;0.57;;;;;;;-0.85;100.00;101838.28;10411609;28;20042;-85
2023/01/25 02:39:27;;;;;;;1.98;1.42;;;;;;;-0.85;100.00;101841.81;10407218;28;20054;-85
2023/01/25 02:44:31;;;;;;;2.15;1.48;;;;;;;-0.85;100.00;101832.91;10389465;28;20045;-85
2023/01/25 02:49:39;;;;;;;2.13;1.52;;;;;;;-0.86;100.00;101826.66;10405539;28;20045;-86
2023/01/25 02:54:44;;;;;;;2.20;1.50;;;;;;;-0.86;100.00;101833.91;10404912;28;20049;-86
2023/01/25 02:59:50;;;;;;;1.75;1.38;;;;;;;-0.83;100.00;101852.41;10406449;28;20523;-84
2023/01/25 03:04:53;;;;;;;1.70;1.30;;;;;;;-0.88;100.00;101839.44;10405185;28;20041;-84
2023/01/25 03:09:56;;;;;;;1.83;1.50;;;;;;;-0.85;100.00;101827.50;10405228;28;20500;-84
2023/01/25 03:14:59;;;;;;;4.50;2.60;;;;;;;-0.84;100.00;101819.25;10404604;28;20049;-86
2023/01/25 03:20:02;;;;;;;9.65;5.30;;;;;;;-0.82;100.00;101805.59;10387783;28;20149;-87
2023/01/25 03:25:07;;;;;;;30.27;13.20;;;;;;;-0.81;100.00;101820.75;10403938;28;20053;-84
2023/01/25 03:30:11;;;;;;;18.55;9.30;;;;;;;-0.79;100.00;101824.94;10372681;28;20060;-85
2023/01/25 03:35:14;;;;;;;10.05;5.85;;;;;;;-0.79;100.00;101807.91;10387617;28;20440;-84
2023/01/25 03:40:16;;;;;;;4.47;2.55;;;;;;;-0.80;100.00;101803.56;10404861;28;20046;-84
2023/01/25 03:45:22;;;;;;;2.20;1.67;;;;;;;-0.86;100.00;101791.63;10404584;28;20034;-85
2023/01/25 03:50:25;;;;;;;1.23;1.13;;;;;;;-0.86;100.00;101785.41;10403815;28;20052;-86
2023/01/25 03:55:28;;;;;;;1.75;1.15;;;;;;;-0.89;100.00;101756.94;10403242;28;20046;-85
2023/01/25 04:00:31;;;;;;;3.47;1.50;;;;;;;-0.91;100.00;101737.41;10395966;28;20041;-85
2023/01/25 04:05:36;;;;;;;0.85;0.82;;;;;;;-0.96;100.00;101727.19;10400771;28;20048;-85
2023/01/25 04:10:39;;;;;;;1.55;1.20;;;;;;;-0.94;100.00;101695.53;10416783;28;20074;-85
2023/01/25 04:15:42;;;;;;;1.00;0.90;;;;;;;-0.95;100.00;101682.22;10410988;28;20046;-85
2023/01/25 04:20:55;;;;;;;1.45;0.85;;;;;;;-0.94;100.00;101700.91;10396546;28;20057;-84
2023/01/25 04:25:59;;;;;;;1.75;0.75;;;;;;;-0.93;100.00;101696.34;10412045;28;20049;-85
2023/01/25 04:31:02;;;;;;;1.42;1.17;;;;;;;-0.96;100.00;101696.72;10403775;28;20065;-85
2023/01/25 04:36:10;;;;;;;1.63;0.90;;;;;;;-0.99;100.00;101697.91;10387934;28;20504;-85
2023/01/25 04:41:13;;;;;;;0.60;0.60;;;;;;;-0.96;100.00;101673.31;10386858;28;20448;-84
2023/01/25 04:46:16;;;;;;;4.47;0.85;;;;;;;-0.95;100.00;101657.97;10402704;28;20082;-85
2023/01/25 04:51:19;;;;;;;1.70;1.08;;;;;;;-0.98;100.00;101634.09;10402376;28;20049;-84
2023/01/25 04:56:21;;;;;;;1.27;1.17;;;;;;;-1.01;100.00;101629.09;10401357;28;20508;-84
2023/01/25 05:01:28;;;;;;;1.27;1.10;;;;;;;-1.03;100.00;101626.56;10402187;28;20054;-84
2023/01/25 05:06:30;;;;;;;3.35;0.90;;;;;;;-1.03;100.00;101612.28;10402526;28;20054;-84
2023/01/25 05:11:33;;;;;;;0.70;0.70;;;;;;;-1.08;100.00;101620.88;10402023;28;20046;-85
2023/01/25 05:16:42;;;;;;;1.33;0.77;;;;;;;-1.05;100.00;101619.66;10404897;28;20132;-84
2023/01/25 05:21:56;;;;;;;1.02;0.88;;;;;;;-1.06;100.00;101610.75;10401574;28;20497;-85
2023/01/25 05:27:09;;;;;;;1.50;0.95;;;;;;;-1.06;100.00;101602.66;10395725;28;20046;-85
2023/01/25 05:32:29;;;;;;;1.27;1.02;;;;;;;-1.02;99.95;101595.09;10409816;28;20041;-86
2023/01/25 05:37:33;;;;;;;0.90;0.90;;;;;;;-1.01;99.43;101594.91;10407580;28;20042;-84
2023/01/25 05:42:40;;;;;;;0.85;0.70;;;;;;;-0.98;99.40;101585.63;10408079;28;20052;-86
2023/01/25 05:47:54;;;;;;;1.23;0.70;;;;;;;-0.96;99.48;101602.44;10391776;28;20048;-85
2023/01/25 05:52:57;;;;;;;0.85;0.85;;;;;;;-0.97;99.28;101592.69;10407865;28;20046;-85
2023/01/25 05:57:59;;;;;;;1.27;1.10;;;;;;;-0.95;99.25;101596.84;10407654;28;20053;-86
2023/01/25 06:03:02;;;;;;;1.63;1.00;;;;;;;-0.93;99.31;101584.03;10390759;28;20053;-84
2023/01/25 06:08:07;;;;;;;0.80;0.55;;;;;;;-0.93;99.13;101567.03;10407578;28;20049;-86
2023/01/25 06:13:25;;;;;;;0.85;0.85;;;;;;;-0.94;98.90;101550.03;10406298;28;20508;-83
2023/01/25 06:18:29;;;;;;;0.75;0.68;;;;;;;-0.93;99.29;101546.31;10390745;28;20053;-85
2023/01/25 06:23:54;;;;;;;1.90;1.17;;;;;;;-0.87;99.10;101552.00;10406638;28;20038;-86
2023/01/25 06:28:56;;;;;;;0.35;0.35;;;;;;;-0.86;99.55;101551.00;10405634;28;20076;-86
2023/01/25 06:34:03;;;;;;;1.23;0.52;;;;;;;-0.88;99.13;101544.94;10406566;28;20037;-85
2023/01/25 06:39:08;;;;;;;0.60;0.60;;;;;;;-0.86;99.31;101540.22;10405376;28;20054;-86
2023/01/25 06:44:10;;;;;;;0.57;0.57;;;;;;;-0.87;99.44;101523.19;10407306;28;20436;-85
2023/01/25 06:49:12;;;;;;;1.00;0.40;;;;;;;-0.88;99.80;101521.50;10406533;28;20508;-85
2023/01/25 06:54:14;;;;;;;1.35;0.70;;;;;;;-0.90;100.00;101502.00;10406846;28;20054;-87
2023/01/25 06:59:16;;;;;;;0.77;0.45;;;;;;;-0.85;100.00;101490.69;10405943;28;20056;-85
2023/01/25 07:04:19;;;;;;;0.70;0.45;;;;;;;-0.67;100.00;101485.78;10406100;28;20050;-84
2023/01/25 07:09:25;;;;;;;1.08;0.70;;;;;;;-0.65;100.00;101489.13;10404459;28;20412;-85
2023/01/25 07:14:52;;;;;;;0.30;0.30;;;;;;;-0.49;100.00;101461.13;10405030;28;20512;-87
2023/01/25 07:19:55;;;;;;;0.80;0.80;;;;;;;-0.41;100.00;101432.16;10403698;28;20052;-86
2023/01/25 07:24:57;;;;;;;0.80;0.70;;;;;;;-0.46;100.00;101445.41;10405086;28;20056;-85
2023/01/25 07:30:00;;;;;;;0.85;0.75;;;;;;;-0.39;100.00;101435.50;10405190;28;20050;-85
2023/01/25 07:35:03;;;;;;;3.50;0.77;;;;;;;-0.45;100.00;101430.88;10404832;28;20049;-85
2023/01/25 07:40:05;;;;;;;0.65;0.65;;;;;;;-0.33;100.00;101437.47;10403531;28;20069;-83
2023/01/25 07:45:09;;;;;;;0.38;0.38;;;;;;;-0.47;99.62;101432.94;10405016;28;20046;-85
2023/01/25 07:50:12;;;;;;;0.60;0.60;;;;;;;-0.50;99.68;101432.50;10403903;28;20049;-85
2023/01/25 07:55:14;;;;;;;0.60;0.60;;;;;;;-0.53;98.81;101411.28;10404799;28;20133;-86
2023/01/25 08:00:17;;;;;;;1.90;0.98;;;;;;;-0.57;99.18;101405.44;10404670;28;20053;-84
2023/01/25 08:05:19;;;;;;;1.17;1.00;;;;;;;-0.54;99.01;101393.44;10404022;28;20057;-85
2023/01/25 08:10:21;;;;;;;0.60;0.60;;;;;;;-0.44;99.16;101383.19;10386568;28;20049;-85
2023/01/25 08:15:23;;;;;;;1.02;0.95;;;;;;;-0.41;98.98;101372.84;10402730;28;20171;-83
2023/01/25 08:20:26;;;;;;;1.30;0.82;;;;;;;-0.33;99.15;101358.44;10402643;28;20460;-85
2023/01/25 08:25:28;;;;;;;1.15;0.80;;;;;;;-0.35;99.06;101357.75;10403678;28;20054;-84
2023/01/25 08:30:30;;;;;;;0.22;0.20;;;;;;;-0.37;98.94;101357.13;10403982;28;20057;-85
2023/01/25 08:35:34;;;;;;;1.30;0.93;;;;;;;-0.37;99.22;101347.16;10401887;28;20531;-84
2023/01/25 08:40:36;;;;;;;1.35;1.15;;;;;;;-0.31;99.27;101341.03;10403078;28;20057;-85
2023/01/25 08:45:39;;;;;;;1.35;0.80;;;;;;;-0.27;99.58;101317.19;10403344;28;20050;-86
2023/01/25 08:50:46;;;;;;;0.43;0.32;;;;;;;-0.28;99.44;101322.78;10402831;28;20042;-86
2023/01/25 08:55:48;;;;;;;0.35;0.35;;;;;;;-0.25;99.35;101312.44;10403478;28;20516;-85
2023/01/25 09:00:50;;;;;;;1.02;0.80;;;;;;;-0.09;99.55;101311.34;10406982;28;20049;-84
2023/01/25 09:05:52;;;;;;;0.77;0.50;;;;;;;-0.01;99.58;101297.69;10410821;28;20051;-85
2023/01/25 09:11:00;;;;;;;0.93;0.80;;;;;;;0.01;99.26;101276.78;10410285;28;20076;-84
2023/01/25 09:16:08;;;;;;;1.33;0.82;;;;;;;0.05;99.05;101269.94;10409906;28;20046;-87
2023/01/25 09:21:15;;;;;;;1.17;1.02;;;;;;;0.14;98.48;101271.44;10410535;28;20056;-86
2023/01/25 09:26:18;;;;;;;0.82;0.82;;;;;;;0.30;98.77;101249.56;10409345;28;20068;-84
2023/01/25 09:31:21;;;;;;;1.67;1.13;;;;;;;0.22;98.45;101254.28;10409662;28;20424;-84
2023/01/25 09:36:39;;;;;;;0.75;0.70;;;;;;;0.24;98.66;101241.44;10408196;28;20046;-85
2023/01/25 09:41:59;;;;;;;0.63;0.63;;;;;;;0.28;98.35;101213.84;10409303;28;20054;-84
2023/01/25 09:47:10;;;;;;;1.08;0.90;;;;;;;0.19;98.32;101217.75;10408130;28;20057;-85
2023/01/25 09:52:25;;;;;;;1.20;0.98;;;;;;;0.26;98.32;101213.19;10407424;28;20047;-85
2023/01/25 09:57:32;;;;;;;2.80;0.80;;;;;;;0.14;98.55;101193.19;10408813;28;20081;-84
2023/01/25 10:02:41;;;;;;;1.67;0.80;;;;;;;0.07;98.74;101186.09;10407241;28;20049;-87
2023/01/25 10:07:49;;;;;;;;;;;;;;;0.02;99.34;101173.22;10407544;28;20046;-85
2023/01/25 10:12:52;;;;;;;0.60;0.60;;;;;;;-0.02;99.10;101158.44;10405270;28;19928;-85
2023/01/25 10:18:29;;;;;;;0.40;0.40;;;;;;;0.07;99.64;101159.97;10408463;28;20053;-86
2023/01/25 10:23:34;;;;;;;0.30;0.30;;;;;;;0.15;100.00;101162.47;10407207;28;20517;-85
2023/01/25 10:28:45;;;;;;;0.47;0.47;;;;;;;0.12;99.80;101141.28;10407710;28;20129;-85
2023/01/25 10:33:48;;;;;;;0.73;0.52;;;;;;;0.23;99.95;101153.41;10406005;28;20049;-84
2023/01/25 10:38:57;;;;;;;1.20;1.10;;;;;;;0.23;99.58;101139.91;10405650;28;20053;-85
2023/01/25 10:49:42;;;;;;;2.08;0.85;;;;;;;0.37;100.00;101120.03;10407444;28;20056;-85
2023/01/25 10:54:45;;;;;;;1.30;0.88;;;;;;;0.30;99.48;101119.16;10405870;28;20088;-84
2023/01/25 10:59:50;;;;;;;0.75;0.60;;;;;;;0.28;99.60;101108.56;10405997;28;20050;-84
2023/01/25 11:04:52;;;;;;;0.60;0.60;;;;;;;0.26;100.00;101107.13;10406422;28;20038;-83
2023/01/25 11:09:54;;;;;;;0.47;0.40;;;;;;;0.32;100.00;101102.75;10405939;28;20519;-84
2023/01/25 11:15:25;;;;;;;0.35;0.35;;;;;;;0.29;100.00;101088.63;10405995;28;20041;-85
2023/01/25 11:20:27;;;;;;;0.20;0.20;;;;;;;0.33;100.00;101082.81;10405467;28;20054;-83
2023/01/25 11:25:32;;;;;;;0.43;0.43;;;;;;;0.33;100.00;101075.56;10404939;28;20065;-83
2023/01/25 11:30:34;;;;;;;0.30;0.30;;;;;;;0.40;100.00;101067.50;10405465;28;20141;-85
2023/01/25 11:35:51;;;;;;;0.55;0.35;;;;;;;0.39;100.00;101072.06;10404044;28;20424;-84
2023/01/25 11:41:05;;;;;;;0.73;0.50;;;;;;;0.45;100.00;101062.31;10404553;28;20528;-83
2023/01/25 11:46:25;;;;;;;0.82;0.70;;;;;;;0.42;100.00;101054.63;10405152;28;20054;-83
2023/01/25 11:51:51;;;;;;;0.55;0.55;;;;;;;0.41;100.00;101050.25;10403692;28;20405;-84
2023/01/25 11:57:02;;;;;;;0.50;0.50;;;;;;;0.43;100.00;101029.28;10405757;28;20042;-84
2023/01/25 12:02:52;;;;;;;0.50;0.50;;;;;;;0.45;100.00;101032.63;10407393;28;20046;-84
2023/01/25 12:08:03;;;;;;;0.73;0.40;;;;;;;0.53;100.00;101032.44;10402110;28;20064;-84
2023/01/25 12:13:17;;;;;;;0.47;0.35;;;;;;;0.52;100.00;101020.81;10405748;28;20050;-85
2023/01/25 12:18:22;;;;;;;1.38;0.82;;;;;;;0.53;100.00;101019.78;10404450;28;20069;-83
2023/01/25 12:23:54;;;;;;;0.73;0.70;;;;;;;0.53;100.00;101008.97;10404358;28;20046;-85
2023/01/25 12:29:03;;;;;;;0.43;0.43;;;;;;;0.55;100.00;100997.97;10384330;28;20060;-85
2023/01/25 12:34:18;;;;;;;0.32;0.32;;;;;;;0.51;100.00;100997.50;10406114;28;20060;-84
2023/01/25 12:39:24;;;;;;;0.63;0.57;;;;;;;0.51;100.00;100988.59;10411648;28;20452;-85
2023/01/25 12:44:36;;;;;;;1.63;0.47;;;;;;;0.44;100.00;100977.78;10410286;28;20501;-85
2023/01/25 12:49:44;;;;;;;0.70;0.50;;;;;;;0.42;100.00;100962.84;10411453;28;20515;-84
2023/01/25 12:54:47;;;;;;;1.37;0.63;;;;;;;0.41;100.00;100977.38;10411229;28;20048;-86
2023/01/25 13:00:12;;;;;;;0.25;0.25;;;;;;;0.38;100.00;100983.19;10408143;28;20045;-85
2023/01/25 13:05:21;;;;;;;1.35;0.70;;;;;;;0.50;100.00;100993.16;10396863;28;20057;-85
2023/01/25 13:10:25;;;;;;;;;;;;;;;0.58;100.00;100984.88;10392953;28;20548;-85
2023/01/25 13:15:41;;;;;;;0.35;0.35;;;;;;;0.48;100.00;100984.44;10409303;28;19929;-84
2023/01/25 13:20:48;;;;;;;0.38;0.38;;;;;;;0.45;100.00;100992.13;10376751;28;20137;-84
2023/01/25 13:25:50;;;;;;;0.57;0.50;;;;;;;0.47;100.00;100973.84;10410641;28;20054;-84
2023/01/25 13:30:54;;;;;;;0.90;0.65;;;;;;;0.52;100.00;100968.66;10408278;28;20046;-85
2023/01/25 13:36:39;;;;;;;0.83;0.73;;;;;;;0.54;100.00;100955.78;10408542;28;20046;-85
2023/01/25 13:41:57;;;;;;;0.40;0.40;;;;;;;0.60;100.00;100941.44;10406771;28;20492;-86
2023/01/25 13:47:02;;;;;;;0.20;0.20;;;;;;;0.58;100.00;100951.63;10409314;28;20443;-86
2023/01/25 13:52:05;;;;;;;0.00;0.00;;;;;;;0.50;100.00;100932.94;10391950;28;20068;-85
2023/01/25 13:57:22;;;;;;;0.60;0.60;;;;;;;0.62;100.00;100919.63;10409388;28;20042;-85
2023/01/25 14:02:24;;;;;;;0.63;0.57;;;;;;;0.60;100.00;100919.84;10408393;28;20049;-85
2023/01/25 14:07:36;;;;;;;0.70;0.52;;;;;;;0.58;100.00;100924.63;10412861;28;20037;-84
2023/01/25 14:12:42;;;;;;;0.25;0.25;;;;;;;0.61;100.00;100910.72;10400481;28;20034;-85
2023/01/25 14:17:45;;;;;;;0.40;0.40;;;;;;;0.61;100.00;100897.22;10392840;28;20505;-86
2023/01/25 14:22:49;;;;;;;0.75;0.70;;;;;;;0.67;100.00;100907.16;10373678;28;20050;-83
2023/01/25 14:27:58;;;;;;;0.50;0.30;;;;;;;0.66;100.00;100902.78;10407812;28;20065;-83
2023/01/25 14:33:17;;;;;;;1.02;0.55;;;;;;;0.57;100.00;100923.81;10405743;28;20467;-83
2023/01/25 14:38:39;;;;;;;0.15;0.10;;;;;;;0.64;100.00;100907.59;10406604;28;20041;-83
2023/01/25 14:43:48;;;;;;;0.50;0.50;;;;;;;0.71;100.00;100913.81;10406938;28;20057;-84
2023/01/25 14:48:51;;;;;;;0.10;0.10;;;;;;;0.83;100.00;100906.72;10406493;28;20396;-85
2023/01/25 14:54:03;;;;;;;0.32;0.32;;;;;;;0.75;100.00;100912.34;10405355;28;20038;-85
2023/01/25 14:59:06;;;;;;;0.85;0.77;;;;;;;0.78;100.00;100903.00;10404512;28;20057;-85
2023/01/25 15:04:12;;;;;;;1.02;0.60;;;;;;;0.83;100.00;100906.72;10404640;28;20045;-86
2023/01/25 15:09:39;;;;;;;1.42;1.33;;;;;;;0.96;100.00;100905.03;10406322;28;20050;-86
2023/01/25 15:14:53;;;;;;;1.17;1.00;;;;;;;0.92;100.00;100901.94;10404111;28;20042;-86
2023/01/25 15:19:55;;;;;;;0.65;0.60;;;;;;;1.09;100.00;100878.00;10405221;28;20042;-86
2023/01/25 15:24:58;;;;;;;1.08;0.57;;;;;;;0.97;100.00;100874.28;10403686;28;20049;-85
2023/01/25 15:30:00;;;;;;;0.20;0.20;;;;;;;0.93;100.00;100865.78;10405112;28;20049;-85
2023/01/25 15:35:03;;;;;;;0.77;0.73;;;;;;;1.01;100.00;100860.13;10406046;28;20538;-85
2023/01/25 15:40:06;;;;;;;0.40;0.35;;;;;;;0.94;100.00;100856.63;10404529;28;20065;-85
2023/01/25 15:45:09;;;;;;;0.90;0.50;;;;;;;0.93;100.00;100843.31;10405977;28;20415;-85
2023/01/25 15:50:16;;;;;;;2.00;0.88;;;;;;;0.92;100.00;100847.06;10407341;28;20038;-85
2023/01/25 15:55:18;;;;;;;0.50;0.50;;;;;;;0.90;100.00;100833.78;10407274;28;20042;-84
2023/01/25 16:00:22;;;;;;;0.43;0.43;;;;;;;0.98;100.00;100824.59;10404039;28;20401;-84
2023/01/25 16:05:24;;;;;;;0.80;0.70;;;;;;;0.92;100.00;100826.28;10402517;28;20425;-85
2023/01/25 16:10:26;;;;;;;0.75;0.38;;;;;;;0.98;100.00;100827.31;10403766;28;20045;-87
2023/01/25 16:15:28;;;;;;;0.40;0.40;;;;;;;1.00;100.00;100826.03;10404254;28;20080;-84
2023/01/25 16:20:30;;;;;;;0.63;0.50;;;;;;;0.96;100.00;100819.41;10402041;28;20046;-85
2023/01/25 16:25:33;;;;;;;0.43;0.30;;;;;;;0.99;100.00;100818.16;10403427;28;20062;-83
2023/01/25 16:30:35;;;;;;;0.47;0.40;;;;;;;0.98;100.00;100827.31;10404944;28;20472;-84
2023/01/25 16:35:37;;;;;;;0.30;0.30;;;;;;;1.10;100.00;100812.09;10403993;28;20049;-85
2023/01/25 16:40:40;;;;;;;1.90;0.90;;;;;;;1.15;100.00;100812.25;10401779;28;20057;-84
2023/01/25 16:45:42;;;;;;;0.50;0.45;;;;;;;1.20;100.00;100809.72;10403480;28;20527;-84
2023/01/25 16:50:45;;;;;;;0.10;0.10;;;;;;;1.11;100.00;100808.34;10403394;28;20038;-85
2023/01/25 16:55:48;;;;;;;0.98;0.80;;;;;;;1.16;100.00;100798.53;10405137;28;20493;-84
2023/01/25 17:00:50;;;;;;;0.20;0.20;;;;;;;1.13;100.00;100793.56;10410887;28;20420;-83
2023/01/25 17:05:52;;;;;;;1.40;0.65;;;;;;;1.13;100.00;100792.72;10407897;28;20607;-85
2023/01/25 17:10:56;;;;;;;0.15;0.15;;;;;;;1.09;100.00;100796.91;10402796;28;20424;-85
2023/01/25 17:15:59;;;;;;;0.52;0.52;;;;;;;1.15;100.00;100804.97;10403676;28;20052;-85
2023/01/25 17:21:05;;;;;;;1.08;0.63;;;;;;;1.22;100.00;100794.16;10408084;28;20064;-84
2023/01/25 17:26:11;;;;;;;0.22;0.20;;;;;;;1.21;100.00;100789.75;10392851;28;20046;-85
2023/01/25 17:31:17;;;;;;;0.38;0.30;;;;;;;1.18;100.00;100785.63;10410590;28;20247;-87
2023/01/25 17:36:19;;;;;;;0.50;0.50;;;;;;;1.31;100.00;100784.72;10408849;28;20042;-83
2023/01/25 17:41:21;;;;;;;0.68;0.50;;;;;;;1.31;100.00;100779.31;10408594;28;20050;-84
2023/01/25 17:46:28;;;;;;;0.55;0.52;;;;;;;1.36;100.00;100787.59;10408830;28;20041;-84
2023/01/25 17:51:32;;;;;;;0.47;0.47;;;;;;;1.35;100.00;100775.13;10408497;28;20046;-86
2023/01/25 17:56:34;;;;;;;0.10;0.10;;;;;;;1.33;100.00;100776.41;10391241;28;20045;-85
2023/01/25 18:01:37;;;;;;;0.75;0.47;;;;;;;1.40;100.00;100782.63;10409144;28;20058;-86
2023/01/25 18:06:39;;;;;;;0.50;0.38;;;;;;;1.48;100.00;100768.81;10409347;28;20042;-84
2023/01/25 18:11:41;;;;;;;0.30;0.30;;;;;;;1.45;100.00;100771.97;10408907;28;20555;-86
2023/01/25 18:16:43;;;;;;;0.30;0.30;;;;;;;1.39;100.00;100775.53;10409834;28;20057;-86
2023/01/25 18:21:46;;;;;;;0.15;0.15;;;;;;;1.42;100.00;100783.22;10407999;28;20076;-85
2023/01/25 18:26:49;;;;;;;0.52;0.45;;;;;;;1.30;100.00;100774.97;10408008;28;20049;-86
2023/01/25 18:31:52;;;;;;;0.35;0.35;;;;;;;1.26;100.00;100778.31;10405629;28;20074;-83
2023/01/25 18:36:58;;;;;;;0.10;0.10;;;;;;;1.19;100.00;100759.44;10406646;28;20046;-85
2023/01/25 18:42:00;;;;;;;0.40;0.40;;;;;;;1.15;100.00;100775.25;10389282;28;20054;-84
2023/01/25 18:47:02;;;;;;;0.68;0.40;;;;;;;1.19;100.00;100764.84;10407609;28;20057;-85
2023/01/25 18:52:04;;;;;;;0.82;0.43;;;;;;;1.18;100.00;100757.78;10407550;28;20050;-85
2023/01/25 18:57:06;;;;;;;1.25;0.60;;;;;;;1.23;100.00;100744.47;10406217;28;20046;-83
2023/01/25 19:02:10;;;;;;;0.60;0.40;;;;;;;1.21;100.00;100727.59;10405717;28;20057;-84
2023/01/25 19:07:13;;;;;;;0.50;0.50;;;;;;;1.26;100.00;100711.56;10405958;28;20056;-84
2023/01/25 19:12:15;;;;;;;0.10;0.10;;;;;;;1.27;100.00;100710.53;10407399;28;20073;-85
2023/01/25 19:17:17;;;;;;;0.15;0.10;;;;;;;1.38;100.00;100693.59;10407948;28;20656;-85
2023/01/25 19:22:19;;;;;;;0.40;0.40;;;;;;;1.35;100.00;100712.13;10408676;28;20038;-84
2023/01/25 19:27:21;;;;;;;0.82;0.50;;;;;;;1.37;100.00;100713.56;10407123;28;20050;-85
2023/01/25 19:32:23;;;;;;;0.45;0.43;;;;;;;1.32;100.00;100710.69;10411244;28;20052;-85
2023/01/25 19:37:26;;;;;;;0.75;0.35;;;;;;;1.33;100.00;100703.41;10407143;28;20046;-84
2023/01/25 19:42:28;;;;;;;0.98;0.52;;;;;;;1.40;100.00;100693.41;10405500;28;20057;-84
2023/01/25 19:47:31;;;;;;;0.15;0.15;;;;;;;1.46;100.00;100693.34;10409662;28;20050;-87
2023/01/25 19:52:33;;;;;;;0.52;0.47;;;;;;;1.49;100.00;100698.28;10410024;28;20061;-87
2023/01/25 19:57:37;;;;;;;0.25;0.25;;;;;;;1.48;100.00;100696.63;10407907;28;20045;-86
2023/01/25 20:02:39;;;;;;;0.65;0.63;;;;;;;1.49;100.00;100684.78;10409151;28;20061;-87
2023/01/25 20:07:41;;;;;;;1.30;0.50;;;;;;;1.48;100.00;100691.22;10410641;28;20080;-85
2023/01/25 20:12:43;;;;;;;0.10;0.10;;;;;;;1.45;100.00;100686.28;10408955;28;20111;-86
2023/01/25 20:17:45;;;;;;;0.57;0.57;;;;;;;1.45;100.00;100675.47;10405695;28;20056;-87
2023/01/25 20:22:48;;;;;;;0.52;0.50;;;;;;;1.43;100.00;100674.84;10404972;28;20060;-84
2023/01/25 20:27:50;;;;;;;0.43;0.43;;;;;;;1.47;100.00;100665.25;10405001;28;20049;-86
2023/01/25 20:32:52;;;;;;;1.02;0.90;;;;;;;1.55;100.00;100688.47;10404191;28;20057;-86
2023/01/25 20:37:55;;;;;;;0.77;0.43;;;;;;;1.50;100.00;100686.44;10404881;28;20042;-86
2023/01/25 20:42:57;;;;;;;0.70;0.70;;;;;;;1.52;100.00;100684.31;10387503;28;20439;-84
2023/01/25 20:48:00;;;;;;;0.85;0.57;;;;;;;1.65;100.00;100679.88;10406053;28;20046;-85
2023/01/25 20:53:02;;;;;;;2.95;1.13;;;;;;;1.64;100.00;100665.50;10407589;28;20060;-85
2023/01/25 20:58:05;;;;;;;0.63;0.63;;;;;;;1.58;100.00;100661.00;10413494;28;20049;-85
2023/01/25 21:03:07;;;;;;;1.42;0.75;;;;;;;1.66;100.00;100670.69;10415622;28;20056;-86
2023/01/25 21:08:09;;;;;;;1.55;0.98;;;;;;;1.66;100.00;100662.59;10413862;28;20053;-86
2023/01/25 21:13:11;;;;;;;1.20;0.60;;;;;;;1.65;100.00;100661.75;10412862;28;20232;-85
2023/01/25 21:18:13;;;;;;;2.70;0.65;;;;;;;1.62;100.00;100650.56;10410040;28;20412;-86
2023/01/25 21:23:15;;;;;;;2.58;1.10;;;;;;;1.71;100.00;100660.03;10411034;28;20053;-86
2023/01/25 21:28:18;;;;;;;1.92;0.93;;;;;;;1.72;100.00;100665.22;10409582;28;20042;-85
2023/01/25 21:33:20;;;;;;;1.42;0.38;;;;;;;1.74;100.00;100654.22;10411252;28;20075;-84
2023/01/25 21:38:49;;;;;;;2.40;0.93;;;;;;;1.73;100.00;100660.63;10409330;28;20064;-86
2023/01/25 21:54:35;;;;;;;0.32;0.32;;;;;;;1.62;100.00;100674.91;10409322;28;20033;-87
2023/01/25 21:59:39;;;;;;;1.27;0.77;;;;;;;1.62;100.00;100677.59;10408484;28;20061;-85
2023/01/25 22:04:42;;;;;;;1.35;0.80;;;;;;;1.64;100.00;100681.75;10407519;28;20053;-84
2023/01/25 22:09:44;;;;;;;0.40;0.32;;;;;;;1.58;100.00;100687.22;10408630;28;20041;-87
2023/01/25 22:14:50;;;;;;;0.85;0.75;;;;;;;1.65;100.00;100677.16;10407158;28;20404;-85
2023/01/25 22:19:52;;;;;;;0.40;0.40;;;;;;;1.55;100.00;100668.72;10408202;28;20057;-85
2023/01/25 22:24:55;;;;;;;2.17;0.98;;;;;;;1.52;100.00;100668.09;10407900;28;20156;-84
2023/01/25 22:29:57;;;;;;;0.47;0.45;;;;;;;1.48;100.00;100671.47;10407599;28;20046;-85
2023/01/25 22:35:00;;;;;;;0.93;0.70;;;;;;;1.58;100.00;100676.41;10407206;28;20072;-84
2023/01/25 22:40:04;;;;;;;1.27;1.15;;;;;;;1.61;100.00;100665.97;10407607;28;20053;-85
2023/01/25 22:45:07;;;;;;;1.45;0.90;;;;;;;1.58;100.00;100663.72;10406941;28;20423;-85
2023/01/25 22:50:10;;;;;;;1.48;1.02;;;;;;;1.57;100.00;100663.94;10407292;28;20054;-85
2023/01/25 22:55:13;;;;;;;0.13;0.10;;;;;;;1.59;100.00;100683.47;10406716;28;20044;-85
2023/01/25 23:00:40;;;;;;;0.70;0.60;;;;;;;1.56;100.00;100695.53;10405128;28;20407;-85
2023/01/25 23:05:46;;;;;;;0.63;0.32;;;;;;;1.60;100.00;100671.59;10389984;28;20818;-85
2023/01/25 23:10:49;;;;;;;1.30;0.70;;;;;;;1.59;100.00;100669.94;10405313;28;20042;-85
2023/01/25 23:15:51;;;;;;;0.68;0.40;;;;;;;1.55;100.00;100660.59;10406361;28;20504;-84
2023/01/25 23:20:53;;;;;;;0.82;0.63;;;;;;;1.52;100.00;100670.81;10405561;28;20049;-84
2023/01/25 23:26:00;;;;;;;0.93;0.60;;;;;;;1.55;100.00;100676.81;10405742;28;20041;-84
2023/01/25 23:31:18;;;;;;;0.40;0.40;;;;;;;1.62;100.00;100680.31;10405709;28;20515;-86
2023/01/25 23:36:22;;;;;;;1.80;1.02;;;;;;;1.64;100.00;100672.81;10405736;28;20034;-84
2023/01/25 23:41:26;;;;;;;1.00;0.95;;;;;;;1.60;100.00;100675.13;10404882;28;20069;-85